sensor_id;sensor_type;location;lat;lon;timestamp;P1;durP1;ratioP1;P2;durP2;ratioP2
13568;SDS011;6856;51.460;7.158;2023-10-19T00:01:37;2.40;;;2.20;;
13568;SDS011;6856;51.460;7.158;2023-10-19T00:04:10;2.63;;;2.10;;
13568;SDS011;6856;51.460;7.158;2023-10-19T00:06:44;3.33;;;2.17;;
13568;SDS011;6856;51.460;7.158;2023-10-19T00:09:20;2.97;;;2.10;;
13568;SDS011;6856;51.460;7.158;2023-10-19T00:11:55;2.67;;;1.90;;
13568;SDS011;6856;51.460;7.158;2023-10-19T00:14:29;2.87;;;2.17;;
13568;SDS011;6856;51.460;7.158;2023-10-19T00:17:05;2.50;;;2.10;;
13568;SDS011;6856;51.460;7.158;2023-10-19T00:19:42;2.80;;;2.03;;
13568;SDS011;6856;51.460;7.158;2023-10-19T00:22:29;2.17;;;1.87;;
13568;SDS011;6856;51.460;7.158;2023-10-19T00:25:07;2.53;;;2.20;;
13568;SDS011;6856;51.460;7.158;2023-10-19T00:27:45;2.63;;;2.10;;
13568;SDS011;6856;51.460;7.158;2023-10-19T00:30:19;2.60;;;1.97;;
13568;SDS011;6856;51.460;7.158;2023-10-19T00:32:57;3.23;;;2.50;;
13568;SDS011;6856;51.460;7.158;2023-10-19T00:35:35;2.50;;;2.00;;
13568;SDS011;6856;51.460;7.158;2023-10-19T00:38:14;2.70;;;2.13;;
13568;SDS011;6856;51.460;7.158;2023-10-19T00:41:10;2.37;;;2.00;;
13568;SDS011;6856;51.460;7.158;2023-10-19T00:43:45;3.03;;;2.07;;
13568;SDS011;6856;51.460;7.158;2023-10-19T00:46:20;4.20;;;2.10;;
13568;SDS011;6856;51.460;7.158;2023-10-19T00:48:59;3.57;;;2.13;;
13568;SDS011;6856;51.460;7.158;2023-10-19T00:51:40;3.03;;;2.27;;
13568;SDS011;6856;51.460;7.158;2023-10-19T00:54:26;3.27;;;2.20;;
13568;SDS011;6856;51.460;7.158;2023-10-19T00:57:05;2.90;;;2.10;;
13568;SDS011;6856;51.460;7.158;2023-10-19T00:59:41;2.93;;;2.27;;
13568;SDS011;6856;51.460;7.158;2023-10-19T01:02:19;4.40;;;2.87;;
13568;SDS011;6856;51.460;7.158;2023-10-19T01:05:04;4.03;;;2.70;;
13568;SDS011;6856;51.460;7.158;2023-10-19T01:07:38;3.40;;;2.77;;
13568;SDS011;6856;51.460;7.158;2023-10-19T01:10:15;2.97;;;2.43;;
13568;SDS011;6856;51.460;7.158;2023-10-19T01:12:52;4.10;;;2.40;;
13568;SDS011;6856;51.460;7.158;2023-10-19T01:15:26;4.30;;;3.00;;
13568;SDS011;6856;51.460;7.158;2023-10-19T01:18:02;3.57;;;2.70;;
13568;SDS011;6856;51.460;7.158;2023-10-19T01:20:40;3.63;;;2.47;;
13568;SDS011;6856;51.460;7.158;2023-10-19T01:23:23;2.70;;;2.20;;
13568;SDS011;6856;51.460;7.158;2023-10-19T01:25:59;3.93;;;2.50;;
13568;SDS011;6856;51.460;7.158;2023-10-19T01:28:38;3.53;;;2.17;;
13568;SDS011;6856;51.460;7.158;2023-10-19T01:31:19;2.47;;;1.90;;
13568;SDS011;6856;51.460;7.158;2023-10-19T01:34:09;2.97;;;2.13;;
13568;SDS011;6856;51.460;7.158;2023-10-19T01:36:43;2.10;;;1.90;;
13568;SDS011;6856;51.460;7.158;2023-10-19T01:39:18;2.53;;;2.03;;
13568;SDS011;6856;51.460;7.158;2023-10-19T01:41:50;3.37;;;2.13;;
13568;SDS011;6856;51.460;7.158;2023-10-19T01:44:24;2.53;;;2.13;;
13568;SDS011;6856;51.460;7.158;2023-10-19T01:46:57;3.27;;;2.37;;
13568;SDS011;6856;51.460;7.158;2023-10-19T01:49:32;2.67;;;2.23;;
13568;SDS011;6856;51.460;7.158;2023-10-19T01:52:05;2.27;;;1.87;;
13568;SDS011;6856;51.460;7.158;2023-10-19T01:54:42;2.83;;;2.20;;
13568;SDS011;6856;51.460;7.158;2023-10-19T01:57:15;1.73;;;1.63;;
13568;SDS011;6856;51.460;7.158;2023-10-19T01:59:48;3.43;;;2.23;;
13568;SDS011;6856;51.460;7.158;2023-10-19T02:02:21;2.37;;;2.10;;
13568;SDS011;6856;51.460;7.158;2023-10-19T02:04:55;2.47;;;1.53;;
13568;SDS011;6856;51.460;7.158;2023-10-19T02:07:27;3.00;;;1.83;;
13568;SDS011;6856;51.460;7.158;2023-10-19T02:10:02;2.00;;;1.80;;
13568;SDS011;6856;51.460;7.158;2023-10-19T02:12:39;2.27;;;1.60;;
13568;SDS011;6856;51.460;7.158;2023-10-19T02:15:15;2.80;;;1.80;;
13568;SDS011;6856;51.460;7.158;2023-10-19T02:17:48;1.83;;;1.67;;
13568;SDS011;6856;51.460;7.158;2023-10-19T02:20:22;2.20;;;1.70;;
13568;SDS011;6856;51.460;7.158;2023-10-19T02:23:11;4.93;;;2.13;;
13568;SDS011;6856;51.460;7.158;2023-10-19T02:25:46;2.30;;;1.70;;
13568;SDS011;6856;51.460;7.158;2023-10-19T02:28:21;2.67;;;1.70;;
13568;SDS011;6856;51.460;7.158;2023-10-19T02:31:01;3.60;;;1.90;;
13568;SDS011;6856;51.460;7.158;2023-10-19T02:33:42;1.93;;;1.70;;
13568;SDS011;6856;51.460;7.158;2023-10-19T02:36:18;2.53;;;1.73;;
13568;SDS011;6856;51.460;7.158;2023-10-19T02:38:51;2.53;;;1.47;;
13568;SDS011;6856;51.460;7.158;2023-10-19T02:41:28;1.93;;;1.60;;
13568;SDS011;6856;51.460;7.158;2023-10-19T02:44:02;4.37;;;1.90;;
13568;SDS011;6856;51.460;7.158;2023-10-19T02:46:39;1.90;;;1.40;;
13568;SDS011;6856;51.460;7.158;2023-10-19T02:49:14;2.00;;;1.37;;
13568;SDS011;6856;51.460;7.158;2023-10-19T02:51:51;2.20;;;1.60;;
13568;SDS011;6856;51.460;7.158;2023-10-19T02:54:26;1.67;;;1.33;;
13568;SDS011;6856;51.460;7.158;2023-10-19T02:57:05;3.70;;;1.83;;
13568;SDS011;6856;51.460;7.158;2023-10-19T02:59:39;2.40;;;1.40;;
13568;SDS011;6856;51.460;7.158;2023-10-19T03:02:12;2.00;;;1.57;;
13568;SDS011;6856;51.460;7.158;2023-10-19T03:04:49;1.83;;;1.40;;
13568;SDS011;6856;51.460;7.158;2023-10-19T03:07:23;2.40;;;1.50;;
13568;SDS011;6856;51.460;7.158;2023-10-19T03:09:55;1.47;;;1.30;;
13568;SDS011;6856;51.460;7.158;2023-10-19T03:12:31;2.70;;;1.47;;
13568;SDS011;6856;51.460;7.158;2023-10-19T03:15:04;1.33;;;1.10;;
13568;SDS011;6856;51.460;7.158;2023-10-19T03:17:40;2.33;;;1.33;;
13568;SDS011;6856;51.460;7.158;2023-10-19T03:20:14;3.00;;;1.40;;
13568;SDS011;6856;51.460;7.158;2023-10-19T03:22:49;1.50;;;1.20;;
13568;SDS011;6856;51.460;7.158;2023-10-19T03:25:23;2.40;;;1.20;;
13568;SDS011;6856;51.460;7.158;2023-10-19T03:28:15;2.00;;;1.27;;
13568;SDS011;6856;51.460;7.158;2023-10-19T03:30:50;1.90;;;1.17;;
13568;SDS011;6856;51.460;7.158;2023-10-19T03:33:26;2.57;;;1.40;;
13568;SDS011;6856;51.460;7.158;2023-10-19T03:36:00;1.80;;;1.23;;
13568;SDS011;6856;51.460;7.158;2023-10-19T03:38:35;3.30;;;1.20;;
13568;SDS011;6856;51.460;7.158;2023-10-19T03:41:09;1.10;;;1.00;;
13568;SDS011;6856;51.460;7.158;2023-10-19T03:43:44;1.57;;;1.20;;
13568;SDS011;6856;51.460;7.158;2023-10-19T03:46:18;1.20;;;1.10;;
13568;SDS011;6856;51.460;7.158;2023-10-19T03:48:56;2.37;;;1.27;;
13568;SDS011;6856;51.460;7.158;2023-10-19T03:51:35;0.90;;;0.87;;
13568;SDS011;6856;51.460;7.158;2023-10-19T03:54:29;1.47;;;1.10;;
13568;SDS011;6856;51.460;7.158;2023-10-19T03:57:04;1.63;;;1.07;;
13568;SDS011;6856;51.460;7.158;2023-10-19T03:59:44;2.17;;;1.10;;
13568;SDS011;6856;51.460;7.158;2023-10-19T04:02:21;1.47;;;1.00;;
13568;SDS011;6856;51.460;7.158;2023-10-19T04:04:56;2.30;;;1.10;;
13568;SDS011;6856;51.460;7.158;2023-10-19T04:07:32;2.67;;;1.00;;
13568;SDS011;6856;51.460;7.158;2023-10-19T04:10:07;2.43;;;1.10;;
13568;SDS011;6856;51.460;7.158;2023-10-19T04:13:01;1.30;;;0.93;;
13568;SDS011;6856;51.460;7.158;2023-10-19T04:15:41;1.60;;;1.20;;
13568;SDS011;6856;51.460;7.158;2023-10-19T04:18:16;1.20;;;0.90;;
13568;SDS011;6856;51.460;7.158;2023-10-19T04:20:51;2.10;;;0.80;;
13568;SDS011;6856;51.460;7.158;2023-10-19T04:23:29;1.10;;;0.93;;
13568;SDS011;6856;51.460;7.158;2023-10-19T04:26:06;1.47;;;1.20;;
13568;SDS011;6856;51.460;7.158;2023-10-19T04:28:43;0.93;;;0.90;;
13568;SDS011;6856;51.460;7.158;2023-10-19T04:31:23;1.00;;;0.90;;
13568;SDS011;6856;51.460;7.158;2023-10-19T04:33:57;1.40;;;1.00;;
13568;SDS011;6856;51.460;7.158;2023-10-19T04:36:41;1.10;;;1.00;;
13568;SDS011;6856;51.460;7.158;2023-10-19T04:39:14;1.40;;;0.90;;
13568;SDS011;6856;51.460;7.158;2023-10-19T04:41:51;1.20;;;0.90;;
13568;SDS011;6856;51.460;7.158;2023-10-19T04:44:24;1.57;;;1.10;;
13568;SDS011;6856;51.460;7.158;2023-10-19T04:47:00;1.50;;;1.00;;
13568;SDS011;6856;51.460;7.158;2023-10-19T04:49:34;2.37;;;1.10;;
13568;SDS011;6856;51.460;7.158;2023-10-19T04:52:07;1.60;;;1.00;;
13568;SDS011;6856;51.460;7.158;2023-10-19T04:54:41;1.60;;;1.10;;
13568;SDS011;6856;51.460;7.158;2023-10-19T04:57:15;1.60;;;1.03;;
13568;SDS011;6856;51.460;7.158;2023-10-19T04:59:49;1.23;;;0.90;;
13568;SDS011;6856;51.460;7.158;2023-10-19T05:02:24;1.50;;;1.00;;
13568;SDS011;6856;51.460;7.158;2023-10-19T05:04:58;1.90;;;1.20;;
13568;SDS011;6856;51.460;7.158;2023-10-19T05:07:32;2.20;;;1.07;;
13568;SDS011;6856;51.460;7.158;2023-10-19T05:10:08;1.63;;;0.93;;
13568;SDS011;6856;51.460;7.158;2023-10-19T05:12:42;1.30;;;0.93;;
13568;SDS011;6856;51.460;7.158;2023-10-19T05:15:16;1.23;;;0.90;;
13568;SDS011;6856;51.460;7.158;2023-10-19T05:17:51;1.23;;;0.90;;
13568;SDS011;6856;51.460;7.158;2023-10-19T05:20:25;1.33;;;0.90;;
13568;SDS011;6856;51.460;7.158;2023-10-19T05:22:59;1.40;;;1.00;;
13568;SDS011;6856;51.460;7.158;2023-10-19T05:25:32;1.70;;;0.93;;
13568;SDS011;6856;51.460;7.158;2023-10-19T05:28:07;2.37;;;1.07;;
13568;SDS011;6856;51.460;7.158;2023-10-19T05:30:41;1.30;;;1.00;;
13568;SDS011;6856;51.460;7.158;2023-10-19T05:33:17;1.90;;;1.07;;
13568;SDS011;6856;51.460;7.158;2023-10-19T05:35:52;1.47;;;0.93;;
13568;SDS011;6856;51.460;7.158;2023-10-19T05:38:27;2.43;;;1.10;;
13568;SDS011;6856;51.460;7.158;2023-10-19T05:41:03;1.43;;;0.90;;
13568;SDS011;6856;51.460;7.158;2023-10-19T05:43:37;1.47;;;0.83;;
13568;SDS011;6856;51.460;7.158;2023-10-19T05:46:11;1.07;;;0.80;;
13568;SDS011;6856;51.460;7.158;2023-10-19T05:48:47;1.13;;;0.87;;
13568;SDS011;6856;51.460;7.158;2023-10-19T05:51:21;1.27;;;1.00;;
13568;SDS011;6856;51.460;7.158;2023-10-19T05:53:55;1.10;;;0.90;;
13568;SDS011;6856;51.460;7.158;2023-10-19T05:56:33;1.47;;;1.00;;
13568;SDS011;6856;51.460;7.158;2023-10-19T05:59:07;1.87;;;1.10;;
13568;SDS011;6856;51.460;7.158;2023-10-19T06:01:41;1.63;;;0.90;;
13568;SDS011;6856;51.460;7.158;2023-10-19T06:04:19;1.30;;;0.90;;
13568;SDS011;6856;51.460;7.158;2023-10-19T06:06:53;3.33;;;1.20;;
13568;SDS011;6856;51.460;7.158;2023-10-19T06:09:28;1.60;;;1.07;;
13568;SDS011;6856;51.460;7.158;2023-10-19T06:12:02;1.97;;;1.00;;
13568;SDS011;6856;51.460;7.158;2023-10-19T06:14:36;1.67;;;0.90;;
13568;SDS011;6856;51.460;7.158;2023-10-19T06:17:10;1.50;;;0.90;;
13568;SDS011;6856;51.460;7.158;2023-10-19T06:19:52;1.63;;;1.00;;
13568;SDS011;6856;51.460;7.158;2023-10-19T06:22:27;1.43;;;1.10;;
13568;SDS011;6856;51.460;7.158;2023-10-19T06:25:00;2.10;;;0.77;;
13568;SDS011;6856;51.460;7.158;2023-10-19T06:27:36;2.47;;;0.80;;
13568;SDS011;6856;51.460;7.158;2023-10-19T06:30:10;2.30;;;1.20;;
13568;SDS011;6856;51.460;7.158;2023-10-19T06:32:49;1.47;;;0.83;;
13568;SDS011;6856;51.460;7.158;2023-10-19T06:35:27;1.60;;;1.20;;
13568;SDS011;6856;51.460;7.158;2023-10-19T06:38:03;1.60;;;1.03;;
13568;SDS011;6856;51.460;7.158;2023-10-19T06:40:37;1.83;;;0.93;;
13568;SDS011;6856;51.460;7.158;2023-10-19T06:43:11;2.40;;;1.10;;
13568;SDS011;6856;51.460;7.158;2023-10-19T06:45:45;1.33;;;0.90;;
13568;SDS011;6856;51.460;7.158;2023-10-19T06:48:19;1.27;;;0.90;;
13568;SDS011;6856;51.460;7.158;2023-10-19T06:50:55;2.20;;;1.10;;
13568;SDS011;6856;51.460;7.158;2023-10-19T06:53:29;1.57;;;1.30;;
13568;SDS011;6856;51.460;7.158;2023-10-19T06:56:04;2.00;;;1.00;;
13568;SDS011;6856;51.460;7.158;2023-10-19T06:58:39;0.87;;;0.80;;
13568;SDS011;6856;51.460;7.158;2023-10-19T07:01:14;2.33;;;0.93;;
13568;SDS011;6856;51.460;7.158;2023-10-19T07:03:50;2.10;;;0.90;;
13568;SDS011;6856;51.460;7.158;2023-10-19T07:06:26;0.73;;;0.73;;
13568;SDS011;6856;51.460;7.158;2023-10-19T07:09:00;1.50;;;1.13;;
13568;SDS011;6856;51.460;7.158;2023-10-19T07:11:36;1.20;;;1.00;;
13568;SDS011;6856;51.460;7.158;2023-10-19T07:14:10;3.13;;;1.70;;
13568;SDS011;6856;51.460;7.158;2023-10-19T07:16:44;2.43;;;1.57;;
13568;SDS011;6856;51.460;7.158;2023-10-19T07:19:18;2.40;;;1.20;;
13568;SDS011;6856;51.460;7.158;2023-10-19T07:21:54;1.83;;;1.00;;
13568;SDS011;6856;51.460;7.158;2023-10-19T07:24:30;1.77;;;1.10;;
13568;SDS011;6856;51.460;7.158;2023-10-19T07:27:09;1.53;;;1.10;;
13568;SDS011;6856;51.460;7.158;2023-10-19T07:30:08;3.00;;;1.40;;
13568;SDS011;6856;51.460;7.158;2023-10-19T07:32:44;1.63;;;1.37;;
13568;SDS011;6856;51.460;7.158;2023-10-19T07:35:20;1.87;;;1.27;;
13568;SDS011;6856;51.460;7.158;2023-10-19T07:37:59;1.47;;;1.27;;
13568;SDS011;6856;51.460;7.158;2023-10-19T07:40:33;2.50;;;1.17;;
13568;SDS011;6856;51.460;7.158;2023-10-19T07:43:07;2.13;;;1.40;;
13568;SDS011;6856;51.460;7.158;2023-10-19T07:45:41;2.33;;;1.60;;
13568;SDS011;6856;51.460;7.158;2023-10-19T07:48:15;4.63;;;1.50;;
13568;SDS011;6856;51.460;7.158;2023-10-19T07:50:49;1.47;;;1.20;;
13568;SDS011;6856;51.460;7.158;2023-10-19T07:53:26;1.20;;;1.10;;
13568;SDS011;6856;51.460;7.158;2023-10-19T07:56:00;1.73;;;1.00;;
13568;SDS011;6856;51.460;7.158;2023-10-19T07:58:35;1.93;;;1.13;;
13568;SDS011;6856;51.460;7.158;2023-10-19T08:01:09;1.63;;;1.07;;
13568;SDS011;6856;51.460;7.158;2023-10-19T08:03:44;1.57;;;1.27;;
13568;SDS011;6856;51.460;7.158;2023-10-19T08:06:18;2.20;;;1.30;;
13568;SDS011;6856;51.460;7.158;2023-10-19T08:08:54;2.00;;;1.20;;
13568;SDS011;6856;51.460;7.158;2023-10-19T08:11:28;1.30;;;1.00;;
13568;SDS011;6856;51.460;7.158;2023-10-19T08:14:02;2.20;;;1.10;;
13568;SDS011;6856;51.460;7.158;2023-10-19T08:16:37;1.50;;;1.10;;
13568;SDS011;6856;51.460;7.158;2023-10-19T08:19:10;1.60;;;1.10;;
13568;SDS011;6856;51.460;7.158;2023-10-19T08:21:45;2.13;;;1.20;;
13568;SDS011;6856;51.460;7.158;2023-10-19T08:24:21;1.90;;;1.20;;
13568;SDS011;6856;51.460;7.158;2023-10-19T08:26:55;1.87;;;1.00;;
13568;SDS011;6856;51.460;7.158;2023-10-19T08:29:28;1.30;;;1.03;;
13568;SDS011;6856;51.460;7.158;2023-10-19T08:32:02;1.80;;;1.10;;
13568;SDS011;6856;51.460;7.158;2023-10-19T08:34:38;1.37;;;1.00;;
13568;SDS011;6856;51.460;7.158;2023-10-19T08:37:13;2.00;;;1.10;;
13568;SDS011;6856;51.460;7.158;2023-10-19T08:39:49;2.33;;;1.10;;
13568;SDS011;6856;51.460;7.158;2023-10-19T08:42:23;1.00;;;0.87;;
13568;SDS011;6856;51.460;7.158;2023-10-19T08:44:57;0.83;;;0.83;;
13568;SDS011;6856;51.460;7.158;2023-10-19T08:47:31;1.27;;;0.93;;
13568;SDS011;6856;51.460;7.158;2023-10-19T08:50:05;2.10;;;1.17;;
13568;SDS011;6856;51.460;7.158;2023-10-19T08:52:41;1.43;;;0.80;;
13568;SDS011;6856;51.460;7.158;2023-10-19T08:55:18;1.67;;;1.00;;
13568;SDS011;6856;51.460;7.158;2023-10-19T08:58:11;1.47;;;1.00;;
13568;SDS011;6856;51.460;7.158;2023-10-19T09:00:48;2.60;;;1.07;;
13568;SDS011;6856;51.460;7.158;2023-10-19T09:03:26;2.90;;;1.13;;
13568;SDS011;6856;51.460;7.158;2023-10-19T09:06:01;1.33;;;0.80;;
13568;SDS011;6856;51.460;7.158;2023-10-19T09:08:37;1.73;;;1.03;;
13568;SDS011;6856;51.460;7.158;2023-10-19T09:11:14;1.53;;;1.00;;
13568;SDS011;6856;51.460;7.158;2023-10-19T09:13:51;1.97;;;1.00;;
13568;SDS011;6856;51.460;7.158;2023-10-19T09:16:27;1.50;;;1.00;;
13568;SDS011;6856;51.460;7.158;2023-10-19T09:19:02;1.80;;;0.90;;
13568;SDS011;6856;51.460;7.158;2023-10-19T09:21:43;2.30;;;0.93;;
13568;SDS011;6856;51.460;7.158;2023-10-19T09:24:17;1.20;;;0.83;;
13568;SDS011;6856;51.460;7.158;2023-10-19T09:26:54;1.97;;;0.87;;
13568;SDS011;6856;51.460;7.158;2023-10-19T09:29:29;2.00;;;1.10;;
13568;SDS011;6856;51.460;7.158;2023-10-19T09:32:03;1.87;;;1.10;;
13568;SDS011;6856;51.460;7.158;2023-10-19T09:34:40;0.97;;;0.80;;
13568;SDS011;6856;51.460;7.158;2023-10-19T09:37:15;1.47;;;0.97;;
13568;SDS011;6856;51.460;7.158;2023-10-19T09:39:50;2.27;;;1.23;;
13568;SDS011;6856;51.460;7.158;2023-10-19T09:42:26;2.27;;;1.00;;
13568;SDS011;6856;51.460;7.158;2023-10-19T09:45:02;1.73;;;0.80;;
13568;SDS011;6856;51.460;7.158;2023-10-19T09:47:39;1.33;;;0.93;;
13568;SDS011;6856;51.460;7.158;2023-10-19T09:50:24;2.10;;;1.17;;
13568;SDS011;6856;51.460;7.158;2023-10-19T09:52:59;2.23;;;1.00;;
13568;SDS011;6856;51.460;7.158;2023-10-19T09:55:37;1.70;;;1.03;;
13568;SDS011;6856;51.460;7.158;2023-10-19T09:58:17;1.93;;;1.10;;
13568;SDS011;6856;51.460;7.158;2023-10-19T10:00:58;1.47;;;1.00;;
13568;SDS011;6856;51.460;7.158;2023-10-19T10:03:41;3.73;;;1.40;;
13568;SDS011;6856;51.460;7.158;2023-10-19T10:06:17;2.50;;;1.00;;
13568;SDS011;6856;51.460;7.158;2023-10-19T10:09:01;1.10;;;0.80;;
13568;SDS011;6856;51.460;7.158;2023-10-19T10:11:36;3.43;;;1.20;;
13568;SDS011;6856;51.460;7.158;2023-10-19T10:17:10;1.93;;;1.10;;
13568;SDS011;6856;51.460;7.158;2023-10-19T10:19:53;2.73;;;1.30;;
13568;SDS011;6856;51.460;7.158;2023-10-19T10:22:29;2.40;;;1.10;;
13568;SDS011;6856;51.460;7.158;2023-10-19T10:25:02;2.23;;;1.00;;
13568;SDS011;6856;51.460;7.158;2023-10-19T10:27:42;1.87;;;0.90;;
13568;SDS011;6856;51.460;7.158;2023-10-19T10:30:26;1.70;;;1.03;;
13568;SDS011;6856;51.460;7.158;2023-10-19T10:33:00;1.30;;;1.00;;
13568;SDS011;6856;51.460;7.158;2023-10-19T10:35:53;1.43;;;1.00;;
13568;SDS011;6856;51.460;7.158;2023-10-19T10:38:27;3.73;;;1.70;;
13568;SDS011;6856;51.460;7.158;2023-10-19T10:41:08;3.27;;;1.10;;
13568;SDS011;6856;51.460;7.158;2023-10-19T10:43:48;2.57;;;1.33;;
13568;SDS011;6856;51.460;7.158;2023-10-19T10:46:26;2.50;;;1.10;;
13568;SDS011;6856;51.460;7.158;2023-10-19T10:49:01;3.07;;;1.10;;
13568;SDS011;6856;51.460;7.158;2023-10-19T10:51:42;5.93;;;1.30;;
13568;SDS011;6856;51.460;7.158;2023-10-19T10:54:20;2.40;;;1.13;;
13568;SDS011;6856;51.460;7.158;2023-10-19T10:56:54;2.93;;;1.00;;
13568;SDS011;6856;51.460;7.158;2023-10-19T10:59:28;1.83;;;1.00;;
13568;SDS011;6856;51.460;7.158;2023-10-19T11:02:08;2.70;;;1.20;;
13568;SDS011;6856;51.460;7.158;2023-10-19T11:04:51;4.10;;;1.17;;
13568;SDS011;6856;51.460;7.158;2023-10-19T11:07:27;2.57;;;1.17;;
13568;SDS011;6856;51.460;7.158;2023-10-19T11:10:01;5.10;;;1.60;;
13568;SDS011;6856;51.460;7.158;2023-10-19T11:12:35;1.47;;;0.90;;
13568;SDS011;6856;51.460;7.158;2023-10-19T11:15:10;4.57;;;1.20;;
13568;SDS011;6856;51.460;7.158;2023-10-19T11:17:45;3.13;;;1.30;;
13568;SDS011;6856;51.460;7.158;2023-10-19T11:20:22;4.03;;;1.43;;
13568;SDS011;6856;51.460;7.158;2023-10-19T11:22:58;2.50;;;1.00;;
13568;SDS011;6856;51.460;7.158;2023-10-19T11:25:34;2.73;;;1.13;;
13568;SDS011;6856;51.460;7.158;2023-10-19T11:28:16;3.00;;;1.17;;
13568;SDS011;6856;51.460;7.158;2023-10-19T11:30:50;3.43;;;1.30;;
13568;SDS011;6856;51.460;7.158;2023-10-19T11:33:26;3.00;;;1.20;;
13568;SDS011;6856;51.460;7.158;2023-10-19T11:35:59;1.60;;;0.93;;
13568;SDS011;6856;51.460;7.158;2023-10-19T11:38:34;3.90;;;1.30;;
13568;SDS011;6856;51.460;7.158;2023-10-19T11:41:09;3.20;;;1.23;;
13568;SDS011;6856;51.460;7.158;2023-10-19T11:43:44;2.43;;;1.30;;
13568;SDS011;6856;51.460;7.158;2023-10-19T11:46:20;4.07;;;1.07;;
13568;SDS011;6856;51.460;7.158;2023-10-19T11:49:00;2.40;;;1.03;;
13568;SDS011;6856;51.460;7.158;2023-10-19T11:51:35;2.23;;;1.00;;
13568;SDS011;6856;51.460;7.158;2023-10-19T11:54:09;2.87;;;1.00;;
13568;SDS011;6856;51.460;7.158;2023-10-19T11:56:44;1.87;;;1.10;;
13568;SDS011;6856;51.460;7.158;2023-10-19T11:59:18;1.50;;;0.80;;
13568;SDS011;6856;51.460;7.158;2023-10-19T12:01:51;2.93;;;0.93;;
13568;SDS011;6856;51.460;7.158;2023-10-19T12:04:27;1.33;;;0.90;;
13568;SDS011;6856;51.460;7.158;2023-10-19T12:07:01;3.40;;;1.50;;
13568;SDS011;6856;51.460;7.158;2023-10-19T12:09:37;3.30;;;1.30;;
13568;SDS011;6856;51.460;7.158;2023-10-19T12:12:13;2.58;;;1.05;;
13568;SDS011;6856;51.460;7.158;2023-10-19T12:14:46;2.30;;;1.10;;
13568;SDS011;6856;51.460;7.158;2023-10-19T12:17:21;2.40;;;1.10;;
13568;SDS011;6856;51.460;7.158;2023-10-19T12:20:00;3.10;;;1.40;;
13568;SDS011;6856;51.460;7.158;2023-10-19T12:22:33;3.77;;;1.40;;
13568;SDS011;6856;51.460;7.158;2023-10-19T12:25:10;3.10;;;1.07;;
13568;SDS011;6856;51.460;7.158;2023-10-19T12:27:44;2.90;;;1.10;;
13568;SDS011;6856;51.460;7.158;2023-10-19T12:30:18;7.20;;;1.47;;
13568;SDS011;6856;51.460;7.158;2023-10-19T12:32:55;3.93;;;1.20;;
13568;SDS011;6856;51.460;7.158;2023-10-19T12:35:31;3.10;;;1.08;;
13568;SDS011;6856;51.460;7.158;2023-10-19T12:38:16;3.17;;;1.50;;
13568;SDS011;6856;51.460;7.158;2023-10-19T12:40:51;2.50;;;1.10;;
13568;SDS011;6856;51.460;7.158;2023-10-19T12:43:26;3.80;;;1.33;;
13568;SDS011;6856;51.460;7.158;2023-10-19T12:46:01;3.57;;;1.20;;
13568;SDS011;6856;51.460;7.158;2023-10-19T12:48:35;4.70;;;1.42;;
13568;SDS011;6856;51.460;7.158;2023-10-19T12:51:10;2.27;;;1.30;;
13568;SDS011;6856;51.460;7.158;2023-10-19T12:53:44;4.33;;;1.30;;
13568;SDS011;6856;51.460;7.158;2023-10-19T12:56:19;3.70;;;1.50;;
13568;SDS011;6856;51.460;7.158;2023-10-19T12:58:56;3.67;;;1.50;;
13568;SDS011;6856;51.460;7.158;2023-10-19T13:01:33;4.67;;;1.30;;
13568;SDS011;6856;51.460;7.158;2023-10-19T13:04:07;3.60;;;1.33;;
13568;SDS011;6856;51.460;7.158;2023-10-19T13:06:49;2.87;;;1.30;;
13568;SDS011;6856;51.460;7.158;2023-10-19T13:09:25;5.93;;;1.40;;
13568;SDS011;6856;51.460;7.158;2023-10-19T13:12:04;2.87;;;1.40;;
13568;SDS011;6856;51.460;7.158;2023-10-19T13:14:40;2.60;;;1.13;;
13568;SDS011;6856;51.460;7.158;2023-10-19T13:17:15;2.80;;;1.10;;
13568;SDS011;6856;51.460;7.158;2023-10-19T13:19:50;2.43;;;1.07;;
13568;SDS011;6856;51.460;7.158;2023-10-19T13:22:28;4.27;;;1.67;;
13568;SDS011;6856;51.460;7.158;2023-10-19T13:25:05;4.43;;;1.60;;
13568;SDS011;6856;51.460;7.158;2023-10-19T13:27:40;3.47;;;1.20;;
13568;SDS011;6856;51.460;7.158;2023-10-19T13:30:14;2.35;;;1.20;;
13568;SDS011;6856;51.460;7.158;2023-10-19T13:32:50;4.03;;;1.50;;
13568;SDS011;6856;51.460;7.158;2023-10-19T13:35:25;3.13;;;1.47;;
13568;SDS011;6856;51.460;7.158;2023-10-19T13:38:00;3.00;;;1.40;;
13568;SDS011;6856;51.460;7.158;2023-10-19T13:40:33;3.80;;;1.50;;
13568;SDS011;6856;51.460;7.158;2023-10-19T13:43:10;2.17;;;1.10;;
13568;SDS011;6856;51.460;7.158;2023-10-19T13:45:46;2.00;;;1.23;;
13568;SDS011;6856;51.460;7.158;2023-10-19T13:48:21;2.17;;;1.03;;
13568;SDS011;6856;51.460;7.158;2023-10-19T13:50:54;3.10;;;1.40;;
13568;SDS011;6856;51.460;7.158;2023-10-19T13:53:33;3.30;;;1.37;;
13568;SDS011;6856;51.460;7.158;2023-10-19T13:56:07;3.00;;;1.20;;
13568;SDS011;6856;51.460;7.158;2023-10-19T13:58:42;2.37;;;1.27;;
13568;SDS011;6856;51.460;7.158;2023-10-19T14:01:18;2.77;;;1.20;;
13568;SDS011;6856;51.460;7.158;2023-10-19T14:03:55;3.00;;;1.30;;
13568;SDS011;6856;51.460;7.158;2023-10-19T14:06:29;2.93;;;1.17;;
13568;SDS011;6856;51.460;7.158;2023-10-19T14:09:04;1.97;;;1.20;;
13568;SDS011;6856;51.460;7.158;2023-10-19T14:11:38;4.43;;;1.37;;
13568;SDS011;6856;51.460;7.158;2023-10-19T14:14:12;4.53;;;1.37;;
13568;SDS011;6856;51.460;7.158;2023-10-19T14:16:45;2.83;;;1.30;;
13568;SDS011;6856;51.460;7.158;2023-10-19T14:19:21;3.07;;;1.40;;
13568;SDS011;6856;51.460;7.158;2023-10-19T14:21:55;2.77;;;1.20;;
13568;SDS011;6856;51.460;7.158;2023-10-19T14:24:30;2.77;;;1.10;;
13568;SDS011;6856;51.460;7.158;2023-10-19T14:27:03;3.37;;;1.30;;
13568;SDS011;6856;51.460;7.158;2023-10-19T14:29:37;3.37;;;1.20;;
13568;SDS011;6856;51.460;7.158;2023-10-19T14:32:10;2.80;;;1.37;;
13568;SDS011;6856;51.460;7.158;2023-10-19T14:34:44;2.67;;;1.60;;
13568;SDS011;6856;51.460;7.158;2023-10-19T14:37:19;3.43;;;1.40;;
13568;SDS011;6856;51.460;7.158;2023-10-19T14:39:54;2.77;;;1.17;;
13568;SDS011;6856;51.460;7.158;2023-10-19T14:42:28;4.00;;;1.43;;
13568;SDS011;6856;51.460;7.158;2023-10-19T14:45:08;3.70;;;1.37;;
13568;SDS011;6856;51.460;7.158;2023-10-19T14:47:47;3.63;;;1.30;;
13568;SDS011;6856;51.460;7.158;2023-10-19T14:50:23;4.37;;;1.53;;
13568;SDS011;6856;51.460;7.158;2023-10-19T14:52:58;4.83;;;1.53;;
13568;SDS011;6856;51.460;7.158;2023-10-19T14:55:34;3.07;;;1.23;;
13568;SDS011;6856;51.460;7.158;2023-10-19T14:58:08;3.37;;;1.30;;
13568;SDS011;6856;51.460;7.158;2023-10-19T15:00:43;2.63;;;1.20;;
13568;SDS011;6856;51.460;7.158;2023-10-19T15:03:18;3.87;;;1.40;;
13568;SDS011;6856;51.460;7.158;2023-10-19T15:05:53;2.23;;;1.00;;
13568;SDS011;6856;51.460;7.158;2023-10-19T15:08:26;5.07;;;1.60;;
13568;SDS011;6856;51.460;7.158;2023-10-19T15:11:04;3.03;;;1.33;;
13568;SDS011;6856;51.460;7.158;2023-10-19T15:13:39;2.73;;;1.10;;
13568;SDS011;6856;51.460;7.158;2023-10-19T15:16:13;3.90;;;1.40;;
13568;SDS011;6856;51.460;7.158;2023-10-19T15:18:49;3.10;;;1.33;;
13568;SDS011;6856;51.460;7.158;2023-10-19T15:21:22;2.63;;;1.40;;
13568;SDS011;6856;51.460;7.158;2023-10-19T15:23:56;3.93;;;1.53;;
13568;SDS011;6856;51.460;7.158;2023-10-19T15:26:31;2.10;;;1.27;;
13568;SDS011;6856;51.460;7.158;2023-10-19T15:29:05;4.03;;;1.37;;
13568;SDS011;6856;51.460;7.158;2023-10-19T15:31:39;3.60;;;1.40;;
13568;SDS011;6856;51.460;7.158;2023-10-19T15:34:13;3.43;;;1.40;;
13568;SDS011;6856;51.460;7.158;2023-10-19T15:36:47;3.93;;;1.57;;
13568;SDS011;6856;51.460;7.158;2023-10-19T15:39:22;3.20;;;1.13;;
13568;SDS011;6856;51.460;7.158;2023-10-19T15:41:57;2.13;;;1.10;;
13568;SDS011;6856;51.460;7.158;2023-10-19T15:44:30;2.50;;;1.30;;
13568;SDS011;6856;51.460;7.158;2023-10-19T15:47:06;2.17;;;1.27;;
13568;SDS011;6856;51.460;7.158;2023-10-19T15:49:47;3.23;;;1.30;;
13568;SDS011;6856;51.460;7.158;2023-10-19T15:52:25;2.47;;;1.13;;
13568;SDS011;6856;51.460;7.158;2023-10-19T15:55:00;3.00;;;1.10;;
13568;SDS011;6856;51.460;7.158;2023-10-19T15:57:35;4.03;;;1.40;;